This is the latest recevied weather packets stored in our database for station/object KB4MOX. If no packets are shown the sender has not sent any weather packets the latest 1 day(s).
| Time | Temp. | Humidity | Pressure | Rain* | Wind** | Luminosity | Snow |
|---|---|---|---|---|---|---|---|
| 1778024240 | 26.11° C | 43% | 1013.8 hPa | 0 mm | 0.45 m/s, 112° | 25 W/m² | - |
| 1778023938 | 26.67° C | 42% | 1013.7 hPa | 0 mm | 0 m/s | 27 W/m² | - |
| 1778023635 | 26.67° C | 40% | 1013.6 hPa | 0 mm | 0 m/s | 29 W/m² | - |
| 1778023332 | 27.22° C | 40% | 1013.7 hPa | 0 mm | 0 m/s | 57 W/m² | - |
| 1778023029 | 27.22° C | 39% | 1013.5 hPa | 0 mm | 0.45 m/s, 83° | 67 W/m² | - |
| 1778022728 | 27.78° C | 38% | 1013.7 hPa | 0 mm | 0.89 m/s, 269° | 78 W/m² | - |
| 1778022426 | 27.78° C | 38% | 1013.5 hPa | 0 mm | 0.45 m/s, 101° | 89 W/m² | - |
| 1778022122 | 28.33° C | 38% | 1013.6 hPa | 0 mm | 0.89 m/s, 151° | 101 W/m² | - |
| 1778021818 | 27.78° C | 37% | 1013.6 hPa | 0 mm | 0.45 m/s, 96° | 112 W/m² | - |
| 1778021515 | 27.78° C | 39% | 1013.7 hPa | 0 mm | 0 m/s | 127 W/m² | - |
| 1778021211 | 27.78° C | 38% | 1013.5 hPa | 0 mm | 0.89 m/s, 140° | 141 W/m² | - |
| 1778020909 | 28.33° C | 38% | 1013.7 hPa | 0 mm | 0.89 m/s, 91° | 159 W/m² | - |
| 1778020606 | 28.33° C | 37% | 1013.8 hPa | 0 mm | 0.45 m/s, 73° | 179 W/m² | - |
| 1778020302 | 28.33° C | 38% | 1013.7 hPa | 0 mm | 0.45 m/s, 67° | 194 W/m² | - |
| 1778019998 | 28.33° C | 38% | 1013.8 hPa | 0 mm | 0 m/s | 215 W/m² | - |
| 1778019695 | 28.33° C | 40% | 1013.8 hPa | 0 mm | 0.89 m/s, 130° | 230 W/m² | - |
| 1778019392 | 28.33° C | 38% | 1013.7 hPa | 0 mm | 0.45 m/s, 72° | 240 W/m² | - |
| 1778019088 | 28.33° C | 38% | 1014.1 hPa | 0 mm | 1.79 m/s, 144° | 278 W/m² | - |
| 1778018786 | 28.33° C | 38% | 1014 hPa | 0 mm | 1.34 m/s, 52° | 299 W/m² | - |
| 1778018483 | 28.89° C | 37% | 1013.9 hPa | 0 mm | 0 m/s | 306 W/m² | - |
| 1778018181 | 28.33° C | 38% | 1014.1 hPa | 0 mm | 0 m/s | 338 W/m² | - |
| 1778017879 | 27.78° C | 41% | 1014 hPa | 0 mm | 0.45 m/s, 68° | 359 W/m² | - |
| 1778017577 | 27.78° C | 41% | 1014 hPa | 0 mm | 0.45 m/s, 74° | 89 W/m² | - |
| 1778017274 | 27.78° C | 39% | 1014 hPa | 0 mm | 0 m/s | 388 W/m² | - |
| 1778016971 | 28.33° C | 39% | 1014.3 hPa | 0 mm | 0.45 m/s, 86° | 139 W/m² | - |
* Rain latest hour (hover to see other rain measurements)
** Current wind speed in m/s (hover to see current wind gust speed)